createdAt,value
2018-03-23T00:01:07.820Z,90.70
2018-03-23T00:03:36.848Z,90.60
2018-03-23T00:06:05.156Z,90.60
2018-03-23T00:08:33.440Z,90.60
2018-03-23T00:11:01.631Z,90.50
2018-03-23T00:13:29.873Z,90.50
2018-03-23T00:15:58.242Z,90.30
2018-03-23T00:18:26.566Z,90.10
2018-03-23T00:20:55.765Z,90.30
2018-03-23T00:23:24.063Z,90.30
2018-03-23T00:25:52.677Z,90.00
2018-03-23T00:28:20.945Z,90.00
2018-03-23T00:30:49.100Z,90.10
2018-03-23T00:33:17.269Z,90.00
2018-03-23T00:35:45.482Z,90.00
2018-03-23T00:38:13.746Z,90.10
2018-03-23T00:40:42.890Z,89.60
2018-03-23T00:43:11.052Z,89.60
2018-03-23T00:45:39.361Z,89.90
2018-03-23T00:48:07.592Z,90.10
2018-03-23T00:50:35.765Z,89.70
2018-03-23T00:53:03.910Z,89.80
2018-03-23T00:55:32.107Z,89.70
2018-03-23T00:58:00.272Z,89.60
2018-03-23T01:00:28.701Z,89.60
2018-03-23T01:02:57.598Z,90.10
2018-03-23T01:05:25.766Z,89.40
2018-03-23T01:07:53.937Z,89.40
2018-03-23T01:10:22.853Z,89.70
2018-03-23T01:12:51.012Z,89.60
2018-03-23T01:15:19.244Z,89.40
2018-03-23T01:17:47.426Z,89.60
2018-03-23T01:20:15.589Z,90.10
2018-03-23T01:22:44.282Z,89.00
2018-03-23T01:25:12.454Z,89.40
2018-03-23T01:27:40.621Z,89.30
2018-03-23T01:30:08.780Z,89.20
2018-03-23T01:32:37.759Z,89.20
2018-03-23T01:35:06.784Z,89.70
2018-03-23T01:37:34.943Z,88.90
2018-03-23T01:40:03.125Z,89.10
2018-03-23T01:42:31.290Z,89.00
2018-03-23T01:45:00.089Z,88.80
2018-03-23T01:47:28.334Z,89.10
2018-03-23T01:49:56.524Z,89.20
2018-03-23T01:52:24.838Z,89.20
2018-03-23T01:54:53.046Z,89.20
2018-03-23T01:57:21.224Z,89.20
2018-03-23T01:59:49.394Z,89.00
2018-03-23T02:02:17.669Z,89.10
2018-03-23T02:04:46.027Z,89.00
2018-03-23T02:07:15.056Z,89.50
2018-03-23T02:09:43.252Z,89.50
2018-03-23T02:12:11.447Z,89.60
2018-03-23T02:14:39.736Z,89.60
2018-03-23T02:17:07.888Z,90.00
2018-03-23T02:19:36.032Z,90.10
2018-03-23T02:22:04.902Z,90.10
2018-03-23T02:24:33.041Z,90.10
2018-03-23T02:27:01.384Z,90.10
2018-03-23T02:29:29.503Z,90.10
2018-03-23T02:31:58.406Z,89.80
2018-03-23T02:34:26.560Z,89.80
2018-03-23T02:36:55.596Z,90.00
2018-03-23T02:39:23.774Z,90.00
2018-03-23T02:41:51.946Z,89.10
2018-03-23T02:44:20.076Z,89.30
2018-03-23T02:46:49.068Z,89.30
2018-03-23T02:49:17.267Z,89.20
2018-03-23T02:51:45.427Z,89.10
2018-03-23T02:54:14.318Z,89.10
2018-03-23T02:56:42.507Z,89.10
2018-03-23T02:59:10.679Z,89.10
2018-03-23T03:01:38.833Z,89.20
2018-03-23T03:06:41.221Z,88.50
2018-03-23T03:09:09.543Z,88.50
2018-03-23T03:11:37.688Z,88.40
2018-03-23T03:14:05.906Z,88.50
2018-03-23T03:16:34.099Z,88.70
2018-03-23T03:19:02.234Z,88.70
2018-03-23T03:21:30.500Z,88.10
2018-03-23T03:23:59.386Z,88.10
2018-03-23T03:26:27.611Z,87.90
2018-03-23T03:28:55.749Z,88.20
2018-03-23T03:31:24.501Z,88.10
2018-03-23T03:33:53.418Z,88.00
2018-03-23T03:36:21.555Z,88.00
2018-03-23T03:38:50.509Z,88.20
2018-03-23T03:41:18.657Z,88.10
2018-03-23T03:43:46.882Z,88.30
2018-03-23T03:46:15.113Z,88.20
2018-03-23T03:48:43.253Z,88.20
2018-03-23T03:51:13.019Z,88.00
2018-03-23T03:53:41.202Z,88.00
2018-03-23T03:56:09.387Z,88.10
2018-03-23T03:58:37.660Z,87.80
2018-03-23T04:01:05.982Z,88.00
2018-03-23T04:03:34.125Z,88.20
2018-03-23T04:06:02.412Z,88.10
2018-03-23T04:08:31.533Z,88.00
2018-03-23T04:11:00.108Z,88.00
2018-03-23T04:13:42.200Z,87.90
2018-03-23T04:16:10.733Z,87.90
2018-03-23T04:18:38.879Z,88.20
2018-03-23T04:21:07.038Z,88.40
2018-03-23T04:23:35.224Z,88.40
2018-03-23T04:26:03.386Z,88.10
2018-03-23T04:28:31.694Z,87.80
2018-03-23T04:30:59.856Z,87.80
2018-03-23T04:33:28.209Z,88.00
2018-03-23T04:35:56.502Z,87.80
2018-03-23T04:38:24.826Z,88.10
2018-03-23T04:40:58.862Z,88.30
2018-03-23T04:43:27.799Z,88.70
2018-03-23T04:45:55.932Z,88.70
2018-03-23T04:48:24.871Z,89.30
2018-03-23T04:50:53.035Z,89.20
2018-03-23T04:53:21.202Z,89.50
2018-03-23T04:55:49.352Z,89.60
2018-03-23T04:58:17.574Z,89.80
2018-03-23T05:00:45.781Z,89.70
2018-03-23T05:03:14.088Z,90.10
2018-03-23T05:05:42.224Z,90.10
2018-03-23T05:08:10.460Z,90.00
2018-03-23T05:10:38.684Z,89.90
2018-03-23T05:13:06.879Z,89.80
2018-03-23T05:15:35.180Z,89.60
2018-03-23T05:18:03.356Z,89.80
2018-03-23T05:20:31.721Z,89.40
2018-03-23T05:22:59.892Z,89.00
2018-03-23T05:25:28.248Z,89.00
2018-03-23T05:27:57.267Z,88.90
2018-03-23T05:30:26.269Z,88.90
2018-03-23T05:32:54.998Z,88.70
2018-03-23T05:35:23.381Z,88.80
2018-03-23T05:37:51.526Z,88.40
2018-03-23T05:40:19.692Z,88.40
2018-03-23T05:42:48.148Z,88.50
2018-03-23T05:45:16.297Z,88.50
2018-03-23T05:47:45.325Z,88.30
2018-03-23T05:50:13.608Z,88.30
2018-03-23T05:52:41.857Z,87.60
2018-03-23T05:55:10.816Z,87.60
2018-03-23T05:57:39.004Z,87.40
2018-03-23T06:00:07.915Z,86.90
2018-03-23T06:02:36.190Z,86.90
2018-03-23T06:05:05.102Z,87.20
2018-03-23T06:07:33.374Z,87.20
2018-03-23T06:10:01.568Z,87.60
2018-03-23T06:12:29.724Z,87.30
2018-03-23T06:14:58.086Z,87.10
2018-03-23T06:17:26.359Z,87.30
2018-03-23T06:19:55.389Z,87.50
2018-03-23T06:22:23.623Z,87.50
2018-03-23T06:24:52.617Z,87.10
2018-03-23T06:27:21.522Z,87.40
2018-03-23T06:29:49.667Z,87.30
2018-03-23T06:32:18.632Z,87.40
2018-03-23T06:34:47.052Z,87.30
2018-03-23T06:37:16.082Z,87.20
2018-03-23T06:39:46.364Z,87.20
2018-03-23T06:42:15.281Z,87.20
2018-03-23T06:44:43.446Z,87.20
2018-03-23T06:47:11.714Z,87.20
2018-03-23T06:49:40.624Z,86.50
2018-03-23T06:52:08.786Z,87.20
2018-03-23T06:54:36.948Z,86.10
2018-03-23T06:57:05.529Z,85.90
2018-03-23T06:59:33.665Z,85.60
2018-03-23T07:02:01.847Z,85.50
2018-03-23T07:04:30.005Z,85.00
2018-03-23T07:06:58.134Z,84.30
2018-03-23T07:09:26.422Z,84.60
2018-03-23T07:11:55.343Z,84.30
2018-03-23T07:14:24.434Z,84.50
2018-03-23T07:16:52.743Z,84.20
2018-03-23T07:19:20.909Z,84.10
2018-03-23T07:21:49.056Z,82.70
2018-03-23T07:24:17.411Z,82.80
2018-03-23T07:26:45.538Z,83.30
2018-03-23T07:29:13.936Z,83.40
2018-03-23T07:31:43.705Z,82.30
2018-03-23T07:34:11.840Z,82.30
2018-03-23T07:36:40.123Z,82.30
2018-03-23T07:39:08.325Z,82.10
2018-03-23T07:41:36.495Z,81.20
2018-03-23T07:44:04.655Z,81.60
2018-03-23T07:46:32.910Z,81.60
2018-03-23T07:49:08.839Z,81.20
2018-03-23T07:51:38.336Z,82.50
2018-03-23T07:54:06.535Z,82.20
2018-03-23T07:56:34.807Z,82.20
2018-03-23T07:59:02.961Z,82.00
2018-03-23T08:01:31.115Z,81.90
2018-03-23T08:04:00.146Z,82.60
2018-03-23T08:06:29.240Z,82.70
2018-03-23T08:08:57.391Z,82.70
2018-03-23T08:11:25.541Z,82.10
2018-03-23T08:13:53.707Z,82.20
2018-03-23T08:16:22.000Z,81.90
2018-03-23T08:18:50.142Z,81.90
2018-03-23T08:21:18.480Z,81.70
2018-03-23T08:23:47.491Z,80.70
2018-03-23T08:26:17.492Z,80.10
2018-03-23T08:28:45.749Z,80.10
2018-03-23T08:31:13.955Z,81.10
2018-03-23T08:33:42.970Z,80.30
2018-03-23T08:36:11.203Z,80.20
2018-03-23T08:38:39.353Z,79.30
2018-03-23T08:41:07.482Z,79.70
2018-03-23T08:43:35.649Z,76.60
2018-03-23T08:46:03.791Z,75.40
2018-03-23T08:48:31.931Z,75.40
2018-03-23T08:51:00.074Z,76.10
2018-03-23T08:53:28.246Z,75.20
2018-03-23T08:55:57.152Z,75.50
2018-03-23T08:58:26.114Z,74.90
2018-03-23T09:00:55.009Z,71.90
2018-03-23T09:03:23.926Z,70.90
2018-03-23T09:05:52.099Z,70.90
2018-03-23T09:08:20.234Z,70.90
2018-03-23T09:10:49.156Z,69.60
2018-03-23T09:13:17.345Z,69.50
2018-03-23T09:15:46.351Z,70.10
2018-03-23T09:18:14.686Z,69.90
2018-03-23T09:20:43.089Z,70.20
2018-03-23T09:23:11.228Z,70.50
2018-03-23T09:25:39.490Z,70.70
2018-03-23T09:28:07.665Z,70.00
2018-03-23T09:30:35.917Z,70.20
2018-03-23T09:33:04.232Z,70.30
2018-03-23T09:35:33.209Z,70.40
2018-03-23T09:38:01.359Z,70.20
2018-03-23T09:40:29.608Z,68.40
2018-03-23T09:42:57.838Z,68.40
2018-03-23T09:45:26.025Z,68.10
2018-03-23T09:47:54.930Z,68.20
2018-03-23T09:50:23.086Z,68.20
2018-03-23T09:52:51.246Z,69.00
2018-03-23T09:55:20.327Z,66.90
2018-03-23T09:57:48.668Z,66.50
2018-03-23T10:00:16.830Z,66.10
2018-03-23T10:02:44.984Z,65.60
2018-03-23T10:05:14.059Z,64.50
2018-03-23T10:07:42.199Z,64.50
2018-03-23T10:10:10.370Z,63.10
2018-03-23T10:12:38.899Z,62.40
2018-03-23T10:15:08.313Z,62.50
2018-03-23T10:17:36.458Z,62.50
2018-03-23T10:20:04.907Z,62.40
2018-03-23T10:22:33.063Z,60.80
2018-03-23T10:25:01.260Z,61.50
2018-03-23T10:27:30.233Z,60.80
2018-03-23T10:29:58.374Z,60.80
2018-03-23T10:32:27.278Z,61.20
2018-03-23T10:34:55.450Z,61.10
2018-03-23T10:37:24.398Z,61.20
2018-03-23T10:39:52.584Z,61.20
2018-03-23T10:42:20.738Z,60.70
2018-03-23T10:44:48.894Z,59.60
2018-03-23T10:47:17.212Z,59.20
2018-03-23T10:49:49.333Z,58.10
2018-03-23T10:52:17.490Z,57.60
2018-03-23T10:54:46.245Z,56.30
2018-03-23T10:57:16.455Z,56.60
2018-03-23T10:59:44.761Z,57.20
2018-03-23T11:02:19.483Z,56.80
2018-03-23T11:04:48.887Z,57.10
2018-03-23T11:07:17.220Z,57.00
2018-03-23T11:09:45.744Z,58.60
2018-03-23T11:12:14.124Z,58.00
2018-03-23T11:14:42.784Z,58.40
2018-03-23T11:17:11.007Z,58.20
2018-03-23T11:19:39.262Z,59.50
2018-03-23T11:22:08.260Z,55.60
2018-03-23T11:24:37.182Z,56.10
2018-03-23T11:27:05.330Z,56.10
2018-03-23T11:29:33.481Z,56.40
2018-03-23T11:32:01.651Z,56.20
2018-03-23T11:34:29.913Z,56.80
2018-03-23T11:36:58.054Z,56.10
2018-03-23T11:39:26.329Z,56.60
2018-03-23T11:41:54.608Z,58.10
2018-03-23T11:44:23.191Z,59.10
2018-03-23T11:46:51.332Z,59.20
2018-03-23T11:49:20.335Z,60.20
2018-03-23T11:51:48.476Z,60.10
2018-03-23T11:54:17.541Z,61.20
2018-03-23T11:56:45.674Z,60.40
2018-03-23T11:59:13.934Z,59.00
2018-03-23T12:01:42.867Z,58.30
2018-03-23T12:04:11.043Z,58.30
2018-03-23T12:06:40.262Z,57.70
2018-03-23T12:09:08.572Z,57.50
2018-03-23T12:11:37.475Z,57.40
2018-03-23T12:14:05.627Z,57.30
2018-03-23T12:16:34.570Z,58.20
2018-03-23T12:19:02.718Z,58.10
2018-03-23T12:21:30.914Z,58.70
2018-03-23T12:23:59.184Z,61.10
2018-03-23T12:26:27.336Z,61.20
2018-03-23T12:28:55.515Z,61.20
2018-03-23T12:31:24.012Z,60.40
2018-03-23T12:33:53.652Z,60.80
2018-03-23T12:36:21.973Z,61.20
2018-03-23T12:38:51.008Z,59.60
2018-03-23T12:41:19.143Z,59.60
2018-03-23T12:43:47.303Z,59.90
2018-03-23T12:46:16.258Z,59.70
2018-03-23T12:48:44.593Z,59.70
2018-03-23T12:51:12.752Z,59.50
2018-03-23T12:53:41.986Z,59.60
2018-03-23T12:56:10.137Z,59.70
2018-03-23T12:58:38.276Z,60.10
2018-03-23T13:01:06.455Z,60.90
2018-03-23T13:03:35.430Z,60.50
2018-03-23T13:06:03.887Z,60.50
2018-03-23T13:08:32.280Z,60.70
2018-03-23T13:11:00.441Z,60.40
2018-03-23T13:13:28.608Z,61.90
2018-03-23T13:15:56.752Z,63.10
2018-03-23T13:18:25.102Z,63.00
2018-03-23T13:20:54.045Z,63.30
2018-03-23T13:23:22.216Z,62.90
2018-03-23T13:25:50.376Z,63.80
2018-03-23T13:28:18.657Z,63.60
2018-03-23T13:30:46.824Z,63.80
2018-03-23T13:33:15.564Z,63.60
2018-03-23T13:35:43.746Z,63.70
2018-03-23T13:38:12.085Z,63.80
2018-03-23T13:40:40.233Z,63.30
2018-03-23T13:43:08.466Z,63.70
2018-03-23T13:45:36.784Z,63.70
2018-03-23T13:48:05.080Z,64.10
2018-03-23T13:50:33.237Z,64.20
2018-03-23T13:53:01.480Z,63.70
2018-03-23T13:55:29.650Z,64.20
2018-03-23T13:57:57.826Z,64.50
2018-03-23T14:00:31.921Z,64.00
2018-03-23T14:03:07.177Z,63.80
2018-03-23T14:05:35.623Z,64.50
2018-03-23T14:08:03.792Z,64.50
2018-03-23T14:10:32.025Z,64.60
2018-03-23T14:13:01.148Z,64.30
2018-03-23T14:15:29.937Z,64.40
2018-03-23T14:17:58.115Z,64.40
2018-03-23T14:20:26.276Z,64.60
2018-03-23T14:22:54.423Z,64.70
2018-03-23T14:25:23.354Z,65.90
2018-03-23T14:27:51.645Z,65.90
2018-03-23T14:30:19.822Z,66.40
2018-03-23T14:32:48.161Z,67.50
2018-03-23T14:35:17.094Z,68.20
2018-03-23T14:37:45.259Z,68.20
2018-03-23T14:40:13.466Z,68.70
2018-03-23T14:42:41.692Z,68.80
2018-03-23T14:45:09.851Z,69.40
2018-03-23T14:47:38.599Z,69.80
2018-03-23T14:50:06.752Z,70.40
2018-03-23T14:52:34.908Z,71.40
2018-03-23T14:55:03.265Z,72.30
2018-03-23T14:57:31.442Z,73.00
2018-03-23T14:59:59.638Z,72.90
2018-03-23T15:02:27.984Z,73.40
2018-03-23T15:04:56.170Z,73.20
2018-03-23T15:07:24.555Z,74.40
2018-03-23T15:09:52.701Z,73.60
2018-03-23T15:12:21.629Z,72.30
2018-03-23T15:14:49.843Z,72.30
2018-03-23T15:17:17.996Z,71.90
2018-03-23T15:19:46.165Z,71.80
2018-03-23T15:22:14.348Z,71.70
2018-03-23T15:24:42.621Z,71.50
2018-03-23T15:27:10.988Z,71.80
2018-03-23T15:29:39.579Z,71.50
2018-03-23T15:32:08.274Z,71.80
2018-03-23T15:34:38.882Z,71.80
2018-03-23T15:37:07.020Z,71.30
2018-03-23T15:39:35.351Z,71.40
2018-03-23T15:42:03.488Z,71.30
2018-03-23T15:44:31.658Z,71.40
2018-03-23T15:46:59.813Z,71.80
2018-03-23T15:49:29.014Z,71.60
2018-03-23T15:51:57.940Z,71.50
2018-03-23T15:54:26.102Z,71.50
2018-03-23T15:56:54.296Z,71.50
2018-03-23T15:59:22.636Z,71.80
2018-03-23T16:01:51.716Z,71.10
2018-03-23T16:04:19.913Z,71.10
2018-03-23T16:06:48.909Z,72.20
2018-03-23T16:09:18.092Z,72.20
2018-03-23T16:11:47.020Z,72.90
2018-03-23T16:14:15.188Z,72.90
2018-03-23T16:16:43.417Z,72.50
2018-03-23T16:19:13.531Z,73.40
2018-03-23T16:21:41.703Z,73.40
2018-03-23T16:24:10.714Z,73.20
2018-03-23T16:26:39.860Z,73.60
2018-03-23T16:29:08.016Z,73.50
2018-03-23T16:31:36.211Z,73.60
2018-03-23T16:34:05.173Z,73.50
2018-03-23T16:36:33.394Z,73.40
2018-03-23T16:39:01.545Z,73.50
2018-03-23T16:41:29.704Z,73.50
2018-03-23T16:43:57.871Z,73.70
2018-03-23T16:46:26.168Z,73.60
2018-03-23T16:48:54.409Z,74.10
2018-03-23T16:51:23.342Z,73.30
2018-03-23T16:53:51.512Z,73.30
2018-03-23T16:56:20.514Z,73.20
2018-03-23T16:58:48.682Z,71.30
2018-03-23T17:01:16.866Z,70.80
2018-03-23T17:03:45.347Z,70.90
2018-03-23T17:06:13.562Z,71.20
2018-03-23T17:08:42.471Z,72.40
2018-03-23T17:11:11.001Z,72.40
2018-03-23T17:13:39.158Z,71.70
2018-03-23T17:16:07.297Z,72.30
2018-03-23T17:18:35.583Z,72.10
2018-03-23T17:21:03.912Z,72.00
2018-03-23T17:23:32.082Z,71.90
2018-03-23T17:26:01.242Z,72.70
2018-03-23T17:28:29.401Z,72.20
2018-03-23T17:30:57.550Z,72.70
2018-03-23T17:33:26.465Z,73.30
2018-03-23T17:35:54.619Z,73.20
2018-03-23T17:38:22.784Z,73.50
2018-03-23T17:40:50.947Z,73.30
2018-03-23T17:43:19.098Z,73.50
2018-03-23T17:45:47.255Z,73.20
2018-03-23T17:48:16.563Z,73.80
2018-03-23T17:50:45.952Z,73.70
2018-03-23T17:53:14.099Z,73.60
2018-03-23T17:55:42.265Z,73.90
2018-03-23T17:58:10.414Z,73.80
2018-03-23T18:00:38.633Z,74.00
2018-03-23T18:03:06.977Z,74.40
2018-03-23T18:05:35.351Z,74.40
2018-03-23T18:08:03.493Z,74.60
2018-03-23T18:10:31.655Z,75.10
2018-03-23T18:12:59.812Z,74.20
2018-03-23T18:15:27.961Z,74.10
2018-03-23T18:17:57.029Z,74.80
2018-03-23T18:20:25.433Z,74.80
2018-03-23T18:22:54.357Z,75.30
2018-03-23T18:25:22.512Z,75.30
2018-03-23T18:27:50.745Z,75.70
2018-03-23T18:30:18.897Z,75.50
2018-03-23T18:32:47.663Z,75.70
2018-03-23T18:35:15.806Z,75.60
2018-03-23T18:37:44.738Z,75.90
2018-03-23T18:40:12.978Z,75.80
2018-03-23T18:42:41.127Z,75.90
2018-03-23T18:45:09.320Z,75.90
2018-03-23T18:47:38.273Z,76.10
2018-03-23T18:50:07.335Z,75.90
2018-03-23T18:52:35.486Z,75.90
2018-03-23T18:55:04.459Z,75.80
2018-03-23T18:57:33.070Z,75.80
2018-03-23T19:00:01.211Z,76.20
2018-03-23T19:02:29.466Z,76.30
2018-03-23T19:04:58.431Z,76.60
2018-03-23T19:07:26.574Z,76.50
2018-03-23T19:09:54.937Z,76.60
2018-03-23T19:12:23.070Z,76.50
2018-03-23T19:14:51.210Z,76.60
2018-03-23T19:17:19.477Z,76.70
2018-03-23T19:19:48.533Z,76.70
2018-03-23T19:22:18.056Z,76.60
2018-03-23T19:24:46.369Z,76.80
2018-03-23T19:27:14.518Z,76.70
2018-03-23T19:29:43.440Z,76.80
2018-03-23T19:32:12.088Z,76.70
2018-03-23T19:34:40.227Z,76.70
2018-03-23T19:37:08.966Z,76.90
2018-03-23T19:39:37.278Z,77.10
2018-03-23T19:42:05.454Z,76.90
2018-03-23T19:44:33.678Z,77.20
2018-03-23T19:47:02.748Z,77.00
2018-03-23T19:49:30.969Z,77.00
2018-03-23T19:51:59.163Z,77.00
2018-03-23T19:54:27.340Z,77.10
2018-03-23T19:56:55.619Z,77.10
2018-03-23T19:59:23.756Z,77.40
2018-03-23T20:01:51.922Z,77.30
2018-03-23T20:04:20.240Z,77.30
2018-03-23T20:06:49.123Z,77.10
2018-03-23T20:09:17.290Z,77.10
2018-03-23T20:11:45.451Z,77.30
2018-03-23T20:14:13.592Z,77.40
2018-03-23T20:16:41.765Z,77.50
2018-03-23T20:19:09.930Z,77.70
2018-03-23T20:21:38.207Z,78.00
2018-03-23T20:24:12.184Z,78.10
2018-03-23T20:26:40.322Z,78.50
2018-03-23T20:29:09.233Z,78.60
2018-03-23T20:31:43.018Z,78.60
2018-03-23T20:34:11.933Z,78.60
2018-03-23T20:36:40.079Z,78.60
2018-03-23T20:39:09.028Z,78.10
2018-03-23T20:41:37.283Z,78.00
2018-03-23T20:44:05.461Z,77.90
2018-03-23T20:46:33.619Z,78.10
2018-03-23T20:49:01.783Z,78.00
2018-03-23T20:51:30.789Z,78.00
2018-03-23T20:53:58.992Z,78.00
2018-03-23T20:56:27.146Z,78.10
2018-03-23T20:58:55.301Z,78.10
2018-03-23T21:01:23.683Z,78.00
2018-03-23T21:03:51.847Z,77.80
2018-03-23T21:06:20.751Z,78.30
2018-03-23T21:08:48.916Z,78.20
2018-03-23T21:11:17.149Z,77.90
2018-03-23T21:13:45.411Z,78.10
2018-03-23T21:16:13.596Z,77.90
2018-03-23T21:18:41.888Z,77.70
2018-03-23T21:21:10.142Z,77.80
2018-03-23T21:23:38.337Z,78.00
2018-03-23T21:26:07.280Z,77.70
2018-03-23T21:28:36.263Z,78.50
2018-03-23T21:31:04.430Z,77.80
2018-03-23T21:33:32.570Z,77.60
2018-03-23T21:36:00.743Z,77.90
2018-03-23T21:38:28.906Z,77.80
2018-03-23T21:40:57.368Z,77.90
2018-03-23T21:43:25.501Z,78.00
2018-03-23T21:45:53.654Z,77.60
2018-03-23T21:48:23.056Z,77.40
2018-03-23T21:50:51.975Z,77.10
2018-03-23T21:53:20.150Z,76.90
2018-03-23T21:55:48.336Z,77.10
2018-03-23T21:58:16.680Z,77.20
2018-03-23T22:00:44.810Z,77.20
2018-03-23T22:03:13.705Z,77.40
2018-03-23T22:05:41.849Z,77.30
2018-03-23T22:08:10.111Z,77.60
2018-03-23T22:10:38.259Z,77.20
2018-03-23T22:13:07.232Z,77.70
2018-03-23T22:15:35.558Z,77.70
2018-03-23T22:18:03.718Z,77.50
2018-03-23T22:20:32.315Z,77.60
2018-03-23T22:23:01.226Z,77.70
2018-03-23T22:25:29.371Z,77.70
2018-03-23T22:27:57.537Z,77.60
2018-03-23T22:30:26.457Z,77.70
2018-03-23T22:32:54.588Z,77.60
2018-03-23T22:35:23.507Z,77.80
2018-03-23T22:37:52.050Z,77.80
2018-03-23T22:40:20.983Z,78.00
2018-03-23T22:42:49.153Z,77.90
2018-03-23T22:45:17.321Z,77.30
2018-03-23T22:47:45.489Z,77.00
2018-03-23T22:50:13.666Z,76.90
2018-03-23T22:52:41.860Z,76.60
2018-03-23T22:55:10.050Z,76.50
2018-03-23T22:57:38.251Z,76.90
2018-03-23T23:00:07.915Z,76.70
2018-03-23T23:02:36.082Z,76.60
2018-03-23T23:05:04.229Z,76.50
2018-03-23T23:07:32.472Z,76.40
2018-03-23T23:10:01.434Z,76.90
2018-03-23T23:12:30.513Z,76.90
2018-03-23T23:14:58.776Z,76.90
2018-03-23T23:17:28.633Z,76.90
2018-03-23T23:19:56.942Z,76.90
2018-03-23T23:22:25.134Z,76.70
2018-03-23T23:24:54.141Z,77.50
2018-03-23T23:27:22.299Z,77.40
2018-03-23T23:29:51.237Z,77.50
2018-03-23T23:32:19.459Z,77.50
2018-03-23T23:34:47.664Z,77.80
2018-03-23T23:37:15.812Z,77.50
2018-03-23T23:39:44.719Z,77.70
2018-03-23T23:42:12.884Z,77.70
2018-03-23T23:44:41.801Z,78.10
2018-03-23T23:47:10.798Z,77.80
2018-03-23T23:49:38.967Z,77.80
2018-03-23T23:52:07.097Z,77.80
2018-03-23T23:54:35.240Z,77.90
2018-03-23T23:57:03.402Z,77.60
2018-03-23T23:59:31.595Z,77.90
